Terminal Aerodrome Forecast
Issued by NWS Denver/Boulder, CO

Home | Current Version | Previous Version | Text Only | Print | Product List | Glossary On
Versions: 1 2 3 4 5 6 7 8 9 10 11 12 13 14 15 16 17 18 19 20 21 22 23 24 25 26 27 28 29 30 31 32 33 34 35 36 37 38 39 40 41 42 43 44 45 46 47 48 49 50
000
FTUS45 KBOU 042330
TAFDEN
TAF
KDEN 042330Z 0500/0606 28010G17KT P6SM VCSH SCT080 BKN100
      TEMPO 0500/0502 -SHRA BKN080
     FM050200 25009KT P6SM BKN100 BKN150
     FM050500 22008KT P6SM FEW120 BKN150
     FM051500 VRB05KT P6SM SCT100 BKN150
     FM051700 15007KT P6SM SCT120 BKN200
     FM052200 13012KT P6SM SCT080 BKN120
     FM060200 18010KT P6SM FEW080 SCT120=

USA.gov is the U.S. government's official web portal to all federal, state and local government web resources and services.